sensor_id;sensor_type;location;lat;lon;timestamp;pressure;altitude;pressure_sealevel;temperature;humidity
62725;BME280;49026;52.600;4.694;2022-07-18T00:02:16;102451.50;;;14.89;52.48
62725;BME280;49026;52.600;4.694;2022-07-18T00:04:45;102446.38;;;14.85;52.94
62725;BME280;49026;52.600;4.694;2022-07-18T00:07:11;102447.34;;;14.82;52.75
62725;BME280;49026;52.600;4.694;2022-07-18T00:09:37;102445.66;;;14.79;52.90
62725;BME280;49026;52.600;4.694;2022-07-18T00:12:04;102448.34;;;14.78;53.09
62725;BME280;49026;52.600;4.694;2022-07-18T00:14:30;102443.03;;;14.78;52.86
62725;BME280;49026;52.600;4.694;2022-07-18T00:16:55;102447.50;;;14.77;53.08
62725;BME280;49026;52.600;4.694;2022-07-18T00:19:23;102453.63;;;14.78;53.42
62725;BME280;49026;52.600;4.694;2022-07-18T00:21:48;102449.31;;;14.75;53.52
62725;BME280;49026;52.600;4.694;2022-07-18T00:24:14;102452.00;;;14.74;53.40
62725;BME280;49026;52.600;4.694;2022-07-18T00:26:39;102449.50;;;14.69;53.30
62725;BME280;49026;52.600;4.694;2022-07-18T00:29:04;102437.19;;;14.68;53.58
62725;BME280;49026;52.600;4.694;2022-07-18T00:31:31;102438.13;;;14.67;53.81
62725;BME280;49026;52.600;4.694;2022-07-18T00:33:56;102437.31;;;14.65;53.99
62725;BME280;49026;52.600;4.694;2022-07-18T00:36:21;102436.56;;;14.60;53.90
62725;BME280;49026;52.600;4.694;2022-07-18T00:38:49;102434.91;;;14.56;54.31
62725;BME280;49026;52.600;4.694;2022-07-18T00:41:15;102436.75;;;14.54;54.38
62725;BME280;49026;52.600;4.694;2022-07-18T00:43:41;102434.94;;;14.54;54.33
62725;BME280;49026;52.600;4.694;2022-07-18T00:46:07;102430.56;;;14.53;54.65
62725;BME280;49026;52.600;4.694;2022-07-18T00:48:32;102426.22;;;14.52;54.24
62725;BME280;49026;52.600;4.694;2022-07-18T00:50:57;102418.41;;;14.48;54.18
62725;BME280;49026;52.600;4.694;2022-07-18T00:53:23;102427.38;;;14.43;54.36
62725;BME280;49026;52.600;4.694;2022-07-18T00:55:51;102416.88;;;14.40;54.67
62725;BME280;49026;52.600;4.694;2022-07-18T00:58:17;102420.44;;;14.39;54.96
62725;BME280;49026;52.600;4.694;2022-07-18T01:00:42;102424.03;;;14.37;54.74
62725;BME280;49026;52.600;4.694;2022-07-18T01:03:27;102429.47;;;14.32;54.62
62725;BME280;49026;52.600;4.694;2022-07-18T01:05:52;102431.34;;;14.29;55.08
62725;BME280;49026;52.600;4.694;2022-07-18T01:08:18;102420.00;;;14.25;54.83
62725;BME280;49026;52.600;4.694;2022-07-18T01:10:44;102418.25;;;14.24;55.45
62725;BME280;49026;52.600;4.694;2022-07-18T01:13:12;102420.03;;;14.23;55.16
62725;BME280;49026;52.600;4.694;2022-07-18T01:15:40;102416.56;;;14.21;55.30
62725;BME280;49026;52.600;4.694;2022-07-18T01:18:05;102420.22;;;14.17;55.04
62725;BME280;49026;52.600;4.694;2022-07-18T01:20:31;102417.66;;;14.14;54.87
62725;BME280;49026;52.600;4.694;2022-07-18T01:22:57;102415.16;;;14.09;55.33
62725;BME280;49026;52.600;4.694;2022-07-18T01:25:23;102410.84;;;14.07;55.60
62725;BME280;49026;52.600;4.694;2022-07-18T01:27:49;102399.50;;;14.03;55.47
62725;BME280;49026;52.600;4.694;2022-07-18T01:30:14;102406.50;;;14.04;55.30
62725;BME280;49026;52.600;4.694;2022-07-18T01:32:41;102403.03;;;14.02;55.91
62725;BME280;49026;52.600;4.694;2022-07-18T01:35:06;102400.44;;;14.01;56.10
62725;BME280;49026;52.600;4.694;2022-07-18T01:37:32;102396.94;;;14.00;56.00
62725;BME280;49026;52.600;4.694;2022-07-18T01:39:59;102394.28;;;14.00;55.93
62725;BME280;49026;52.600;4.694;2022-07-18T01:42:25;102392.50;;;14.01;56.21
62725;BME280;49026;52.600;4.694;2022-07-18T01:44:50;102393.38;;;14.01;56.16
62725;BME280;49026;52.600;4.694;2022-07-18T01:47:15;102385.34;;;14.04;56.70
62725;BME280;49026;52.600;4.694;2022-07-18T01:49:41;102387.91;;;14.07;56.42
62725;BME280;49026;52.600;4.694;2022-07-18T01:52:09;102386.97;;;14.10;56.66
62725;BME280;49026;52.600;4.694;2022-07-18T01:54:36;102383.25;;;14.16;56.57
62725;BME280;49026;52.600;4.694;2022-07-18T01:57:03;102389.34;;;14.18;56.48
62725;BME280;49026;52.600;4.694;2022-07-18T01:59:29;102381.34;;;14.21;56.76
62725;BME280;49026;52.600;4.694;2022-07-18T02:01:57;102378.56;;;14.25;56.61
62725;BME280;49026;52.600;4.694;2022-07-18T02:04:23;102382.00;;;14.27;56.58
62725;BME280;49026;52.600;4.694;2022-07-18T02:07:08;102380.13;;;14.31;56.59
62725;BME280;49026;52.600;4.694;2022-07-18T02:09:36;102380.09;;;14.33;56.51
62725;BME280;49026;52.600;4.694;2022-07-18T02:12:02;102392.41;;;14.34;56.78
62725;BME280;49026;52.600;4.694;2022-07-18T02:14:28;102388.00;;;14.33;56.85
62725;BME280;49026;52.600;4.694;2022-07-18T02:16:53;102383.72;;;14.30;57.16
62725;BME280;49026;52.600;4.694;2022-07-18T02:19:18;102374.13;;;14.26;56.91
62725;BME280;49026;52.600;4.694;2022-07-18T02:21:44;102380.38;;;14.23;57.06
62725;BME280;49026;52.600;4.694;2022-07-18T02:24:09;102385.72;;;14.22;57.11
62725;BME280;49026;52.600;4.694;2022-07-18T02:26:34;102379.53;;;14.21;57.04
62725;BME280;49026;52.600;4.694;2022-07-18T02:29:00;102380.47;;;14.20;57.39
62725;BME280;49026;52.600;4.694;2022-07-18T02:31:25;102377.03;;;14.18;57.12
62725;BME280;49026;52.600;4.694;2022-07-18T02:33:53;102374.50;;;14.14;57.49
62725;BME280;49026;52.600;4.694;2022-07-18T02:36:18;102371.97;;;14.11;57.41
62725;BME280;49026;52.600;4.694;2022-07-18T02:38:45;102373.78;;;14.08;57.52
62725;BME280;49026;52.600;4.694;2022-07-18T02:41:13;102365.94;;;14.05;57.40
62725;BME280;49026;52.600;4.694;2022-07-18T02:43:38;102365.94;;;14.05;57.52
62725;BME280;49026;52.600;4.694;2022-07-18T02:46:03;102361.47;;;14.07;57.53
62725;BME280;49026;52.600;4.694;2022-07-18T02:48:31;102357.97;;;14.07;57.56
62725;BME280;49026;52.600;4.694;2022-07-18T02:50:56;102346.59;;;14.05;57.53
62725;BME280;49026;52.600;4.694;2022-07-18T02:53:25;102345.63;;;14.07;57.73
62725;BME280;49026;52.600;4.694;2022-07-18T02:55:51;102343.78;;;14.09;57.35
62725;BME280;49026;52.600;4.694;2022-07-18T02:58:16;102344.66;;;14.10;57.81
62725;BME280;49026;52.600;4.694;2022-07-18T03:00:42;102346.44;;;14.09;57.92
62725;BME280;49026;52.600;4.694;2022-07-18T03:03:07;102340.31;;;14.07;57.74
62725;BME280;49026;52.600;4.694;2022-07-18T03:05:33;102335.09;;;14.06;57.92
62725;BME280;49026;52.600;4.694;2022-07-18T03:07:58;102331.59;;;14.05;58.06
62725;BME280;49026;52.600;4.694;2022-07-18T03:10:25;102335.03;;;14.07;58.64
62725;BME280;49026;52.600;4.694;2022-07-18T03:12:51;102327.13;;;14.07;58.21
62725;BME280;49026;52.600;4.694;2022-07-18T03:15:16;102317.53;;;14.05;58.15
62725;BME280;49026;52.600;4.694;2022-07-18T03:17:46;102321.09;;;14.02;58.16
62725;BME280;49026;52.600;4.694;2022-07-18T03:20:11;102322.94;;;14.00;57.98
62725;BME280;49026;52.600;4.694;2022-07-18T03:22:37;102325.66;;;13.97;57.80
62725;BME280;49026;52.600;4.694;2022-07-18T03:25:03;102321.34;;;13.95;58.15
62725;BME280;49026;52.600;4.694;2022-07-18T03:27:28;102311.75;;;13.92;59.64
62725;BME280;49026;52.600;4.694;2022-07-18T03:29:53;102303.84;;;13.90;59.51
62725;BME280;49026;52.600;4.694;2022-07-18T03:32:21;102303.81;;;13.92;58.79
62725;BME280;49026;52.600;4.694;2022-07-18T03:34:46;102310.81;;;13.93;58.31
62725;BME280;49026;52.600;4.694;2022-07-18T03:37:12;102307.31;;;13.93;58.21
62725;BME280;49026;52.600;4.694;2022-07-18T03:39:37;102304.72;;;13.91;58.32
62725;BME280;49026;52.600;4.694;2022-07-18T03:42:02;102298.63;;;13.89;58.33
62725;BME280;49026;52.600;4.694;2022-07-18T03:44:28;102300.44;;;13.87;58.40
62725;BME280;49026;52.600;4.694;2022-07-18T03:46:53;102293.41;;;13.86;58.11
62725;BME280;49026;52.600;4.694;2022-07-18T03:49:19;102288.03;;;13.89;58.31
62725;BME280;49026;52.600;4.694;2022-07-18T03:51:44;102291.41;;;13.94;58.23
62725;BME280;49026;52.600;4.694;2022-07-18T03:54:12;102291.31;;;13.97;58.00
62725;BME280;49026;52.600;4.694;2022-07-18T03:56:37;102287.78;;;13.98;58.12
62725;BME280;49026;52.600;4.694;2022-07-18T03:59:03;102296.59;;;13.97;58.26
62725;BME280;49026;52.600;4.694;2022-07-18T04:01:31;102299.25;;;13.97;58.38
62725;BME280;49026;52.600;4.694;2022-07-18T04:03:57;102297.47;;;13.98;58.42
62725;BME280;49026;52.600;4.694;2022-07-18T04:06:26;102298.44;;;13.95;58.57
62725;BME280;49026;52.600;4.694;2022-07-18T04:08:52;102309.91;;;13.94;58.53
62725;BME280;49026;52.600;4.694;2022-07-18T04:11:17;102319.56;;;13.95;58.34
62725;BME280;49026;52.600;4.694;2022-07-18T04:13:44;102325.66;;;13.97;58.75
62725;BME280;49026;52.600;4.694;2022-07-18T04:16:10;102324.78;;;13.98;58.42
62725;BME280;49026;52.600;4.694;2022-07-18T04:18:35;102328.13;;;14.03;58.98
62725;BME280;49026;52.600;4.694;2022-07-18T04:21:01;102323.56;;;14.08;59.01
62725;BME280;49026;52.600;4.694;2022-07-18T04:23:26;102326.84;;;14.17;58.72
62725;BME280;49026;52.600;4.694;2022-07-18T04:25:51;102319.63;;;14.22;58.76
62725;BME280;49026;52.600;4.694;2022-07-18T04:28:17;102316.88;;;14.25;58.81
62725;BME280;49026;52.600;4.694;2022-07-18T04:30:43;102316.88;;;14.25;58.94
62725;BME280;49026;52.600;4.694;2022-07-18T04:33:09;102322.19;;;14.25;58.87
62725;BME280;49026;52.600;4.694;2022-07-18T04:35:35;102320.44;;;14.24;58.75
62725;BME280;49026;52.600;4.694;2022-07-18T04:38:02;102323.16;;;14.21;58.86
62725;BME280;49026;52.600;4.694;2022-07-18T04:40:28;102318.78;;;14.20;59.09
62725;BME280;49026;52.600;4.694;2022-07-18T04:42:53;102311.75;;;14.20;59.08
62725;BME280;49026;52.600;4.694;2022-07-18T04:45:18;102311.69;;;14.22;58.99
62725;BME280;49026;52.600;4.694;2022-07-18T04:47:48;102305.44;;;14.24;58.94
62725;BME280;49026;52.600;4.694;2022-07-18T04:50:13;102302.72;;;14.26;58.96
62725;BME280;49026;52.600;4.694;2022-07-18T04:52:40;102300.84;;;14.30;59.23
62725;BME280;49026;52.600;4.694;2022-07-18T04:55:09;102303.31;;;14.36;59.49
62725;BME280;49026;52.600;4.694;2022-07-18T04:57:36;102289.84;;;14.43;58.95
62725;BME280;49026;52.600;4.694;2022-07-18T05:00:04;102298.31;;;14.53;59.26
62725;BME280;49026;52.600;4.694;2022-07-18T05:02:30;102303.19;;;14.67;58.93
62725;BME280;49026;52.600;4.694;2022-07-18T05:04:58;102296.47;;;14.84;58.77
62725;BME280;49026;52.600;4.694;2022-07-18T05:07:23;102293.91;;;15.06;59.09
62725;BME280;49026;52.600;4.694;2022-07-18T05:09:49;102297.78;;;15.21;58.90
62725;BME280;49026;52.600;4.694;2022-07-18T05:12:14;102293.06;;;15.29;58.86
62725;BME280;49026;52.600;4.694;2022-07-18T05:14:39;102290.19;;;15.35;58.76
62725;BME280;49026;52.600;4.694;2022-07-18T05:17:05;102284.72;;;15.40;59.56
62725;BME280;49026;52.600;4.694;2022-07-18T05:19:30;102272.09;;;15.46;59.06
62725;BME280;49026;52.600;4.694;2022-07-18T05:21:55;102270.13;;;15.51;58.82
62725;BME280;49026;52.600;4.694;2022-07-18T05:24:21;102276.06;;;15.58;58.59
62725;BME280;49026;52.600;4.694;2022-07-18T05:26:46;102274.84;;;15.67;59.17
62725;BME280;49026;52.600;4.694;2022-07-18T05:29:14;102265.53;;;15.80;59.09
62725;BME280;49026;52.600;4.694;2022-07-18T05:31:40;102271.94;;;15.97;59.04
62725;BME280;49026;52.600;4.694;2022-07-18T05:34:07;102269.56;;;16.13;59.31
62725;BME280;49026;52.600;4.694;2022-07-18T05:36:32;102269.72;;;16.30;59.27
62725;BME280;49026;52.600;4.694;2022-07-18T05:38:58;102268.94;;;16.48;59.20
62725;BME280;49026;52.600;4.694;2022-07-18T05:41:23;102276.03;;;16.68;59.40
62725;BME280;49026;52.600;4.694;2022-07-18T05:43:51;102274.22;;;16.91;59.40
62725;BME280;49026;52.600;4.694;2022-07-18T05:46:18;102266.81;;;17.18;59.69
62725;BME280;49026;52.600;4.694;2022-07-18T05:48:44;102266.47;;;17.45;59.44
62725;BME280;49026;52.600;4.694;2022-07-18T05:51:10;102273.50;;;17.65;59.43
62725;BME280;49026;52.600;4.694;2022-07-18T05:53:36;102277.94;;;17.84;59.32
62725;BME280;49026;52.600;4.694;2022-07-18T05:56:01;102269.94;;;18.39;58.80
62725;BME280;49026;52.600;4.694;2022-07-18T05:58:27;102275.44;;;18.88;58.47
62725;BME280;49026;52.600;4.694;2022-07-18T06:00:54;102279.31;;;19.16;58.13
62725;BME280;49026;52.600;4.694;2022-07-18T06:03:20;102287.09;;;19.53;58.03
62725;BME280;49026;52.600;4.694;2022-07-18T06:05:45;102282.38;;;19.74;57.84
62725;BME280;49026;52.600;4.694;2022-07-18T06:08:14;102279.50;;;19.78;58.01
62725;BME280;49026;52.600;4.694;2022-07-18T06:10:39;102269.75;;;19.77;57.98
62725;BME280;49026;52.600;4.694;2022-07-18T06:13:04;102268.84;;;19.78;58.24
62725;BME280;49026;52.600;4.694;2022-07-18T06:15:30;102265.72;;;19.86;58.29
62725;BME280;49026;52.600;4.694;2022-07-18T06:17:55;102270.63;;;19.94;58.07
62725;BME280;49026;52.600;4.694;2022-07-18T06:20:20;102254.09;;;20.03;57.63
62725;BME280;49026;52.600;4.694;2022-07-18T06:22:49;102256.38;;;20.25;57.40
62725;BME280;49026;52.600;4.694;2022-07-18T06:25:14;102253.00;;;20.52;57.17
62725;BME280;49026;52.600;4.694;2022-07-18T06:27:40;102257.09;;;20.73;56.28
62725;BME280;49026;52.600;4.694;2022-07-18T06:30:06;102263.00;;;20.93;56.37
62725;BME280;49026;52.600;4.694;2022-07-18T06:32:34;102264.53;;;21.26;56.28
62725;BME280;49026;52.600;4.694;2022-07-18T06:34:59;102253.84;;;21.55;55.22
62725;BME280;49026;52.600;4.694;2022-07-18T06:37:24;102247.56;;;21.83;54.86
62725;BME280;49026;52.600;4.694;2022-07-18T06:39:52;102250.97;;;22.12;55.21
62725;BME280;49026;52.600;4.694;2022-07-18T06:42:18;102254.81;;;22.48;55.16
62725;BME280;49026;52.600;4.694;2022-07-18T06:44:43;102246.28;;;22.82;55.38
62725;BME280;49026;52.600;4.694;2022-07-18T06:47:08;102249.50;;;23.12;54.04
62725;BME280;49026;52.600;4.694;2022-07-18T06:49:34;102261.22;;;23.48;54.44
62725;BME280;49026;52.600;4.694;2022-07-18T06:51:59;102265.03;;;23.70;53.80
62725;BME280;49026;52.600;4.694;2022-07-18T06:54:26;102269.22;;;23.74;53.15
62725;BME280;49026;52.600;4.694;2022-07-18T06:56:56;102267.59;;;23.72;53.07
62725;BME280;49026;52.600;4.694;2022-07-18T06:59:22;102265.13;;;23.68;53.29
62725;BME280;49026;52.600;4.694;2022-07-18T07:01:47;102280.72;;;23.63;52.72
62725;BME280;49026;52.600;4.694;2022-07-18T07:04:13;102280.72;;;23.63;53.10
62725;BME280;49026;52.600;4.694;2022-07-18T07:06:41;102274.28;;;23.66;53.01
62725;BME280;49026;52.600;4.694;2022-07-18T07:09:06;102278.56;;;23.68;52.96
62725;BME280;49026;52.600;4.694;2022-07-18T07:11:32;102273.19;;;23.68;52.55
62725;BME280;49026;52.600;4.694;2022-07-18T07:13:57;102275.97;;;23.67;52.82
62725;BME280;49026;52.600;4.694;2022-07-18T07:16:22;102271.50;;;23.67;52.51
62725;BME280;49026;52.600;4.694;2022-07-18T07:18:50;102272.22;;;23.70;52.54
62725;BME280;49026;52.600;4.694;2022-07-18T07:21:15;102259.66;;;23.70;52.30
62725;BME280;49026;52.600;4.694;2022-07-18T07:23:43;102260.66;;;23.69;51.67
62725;BME280;49026;52.600;4.694;2022-07-18T07:26:08;102262.22;;;23.72;51.89
62725;BME280;49026;52.600;4.694;2022-07-18T07:28:34;102273.81;;;23.85;52.12
62725;BME280;49026;52.600;4.694;2022-07-18T07:31:01;102257.22;;;24.15;51.98
62725;BME280;49026;52.600;4.694;2022-07-18T07:33:27;102261.69;;;24.39;51.65
62725;BME280;49026;52.600;4.694;2022-07-18T07:35:52;102260.84;;;24.63;52.27
62725;BME280;49026;52.600;4.694;2022-07-18T07:38:17;102272.72;;;24.94;51.95
62725;BME280;49026;52.600;4.694;2022-07-18T07:40:44;102268.59;;;25.35;52.26
62725;BME280;49026;52.600;4.694;2022-07-18T07:43:14;102263.25;;;25.79;52.12
62725;BME280;49026;52.600;4.694;2022-07-18T07:45:40;102262.75;;;26.17;50.88
62725;BME280;49026;52.600;4.694;2022-07-18T07:48:08;102254.31;;;26.43;51.59
62725;BME280;49026;52.600;4.694;2022-07-18T07:50:36;102255.78;;;26.68;51.72
62725;BME280;49026;52.600;4.694;2022-07-18T07:53:01;102253.59;;;26.93;50.25
62725;BME280;49026;52.600;4.694;2022-07-18T07:55:29;102256.00;;;27.17;50.36
62725;BME280;49026;52.600;4.694;2022-07-18T07:57:57;102259.50;;;27.39;49.25
62725;BME280;49026;52.600;4.694;2022-07-18T08:00:22;102259.09;;;27.53;49.42
62725;BME280;49026;52.600;4.694;2022-07-18T08:02:56;102255.44;;;27.64;44.67
62725;BME280;49026;52.600;4.694;2022-07-18T08:05:24;102263.88;;;27.90;49.67
62725;BME280;49026;52.600;4.694;2022-07-18T08:07:53;102269.72;;;28.24;50.05
62725;BME280;49026;52.600;4.694;2022-07-18T08:10:18;102262.56;;;28.53;49.36
62725;BME280;49026;52.600;4.694;2022-07-18T08:12:46;102257.44;;;28.69;49.38
62725;BME280;49026;52.600;4.694;2022-07-18T08:15:12;102258.66;;;28.85;49.21
62725;BME280;49026;52.600;4.694;2022-07-18T08:17:38;102269.13;;;29.07;48.92
62725;BME280;49026;52.600;4.694;2022-07-18T08:20:04;102265.63;;;29.25;48.37
62725;BME280;49026;52.600;4.694;2022-07-18T08:22:29;102271.66;;;29.46;48.07
62725;BME280;49026;52.600;4.694;2022-07-18T08:24:57;102268.03;;;29.55;47.85
62725;BME280;49026;52.600;4.694;2022-07-18T08:27:25;102269.72;;;29.56;46.70
62725;BME280;49026;52.600;4.694;2022-07-18T08:29:51;102267.56;;;29.60;46.46
62725;BME280;49026;52.600;4.694;2022-07-18T08:32:16;102258.44;;;29.61;47.00
62725;BME280;49026;52.600;4.694;2022-07-18T08:34:41;102267.31;;;29.53;46.91
62725;BME280;49026;52.600;4.694;2022-07-18T08:37:07;102256.88;;;29.59;46.04
62725;BME280;49026;52.600;4.694;2022-07-18T08:39:32;102257.31;;;29.82;46.38
62725;BME280;49026;52.600;4.694;2022-07-18T08:42:00;102251.38;;;30.14;46.39
62725;BME280;49026;52.600;4.694;2022-07-18T08:44:28;102255.84;;;30.41;46.48
62725;BME280;49026;52.600;4.694;2022-07-18T08:46:55;102245.16;;;30.66;46.13
62725;BME280;49026;52.600;4.694;2022-07-18T08:49:24;102245.19;;;30.74;45.82
62725;BME280;49026;52.600;4.694;2022-07-18T08:51:52;102247.75;;;30.76;45.81
62725;BME280;49026;52.600;4.694;2022-07-18T08:54:18;102243.00;;;30.52;45.33
62725;BME280;49026;52.600;4.694;2022-07-18T08:56:43;102251.06;;;30.17;44.62
62725;BME280;49026;52.600;4.694;2022-07-18T08:59:10;102244.38;;;29.93;44.28
62725;BME280;49026;52.600;4.694;2022-07-18T09:01:36;102247.47;;;29.99;44.82
62725;BME280;49026;52.600;4.694;2022-07-18T09:04:01;102243.53;;;30.11;44.66
62725;BME280;49026;52.600;4.694;2022-07-18T09:06:50;102241.75;;;30.38;43.91
62725;BME280;49026;52.600;4.694;2022-07-18T09:09:19;102238.63;;;30.59;44.71
62725;BME280;49026;52.600;4.694;2022-07-18T09:11:55;102243.31;;;30.75;44.38
62725;BME280;49026;52.600;4.694;2022-07-18T09:14:40;102236.75;;;30.85;43.26
62725;BME280;49026;52.600;4.694;2022-07-18T09:17:09;102232.03;;;30.88;43.22
62725;BME280;49026;52.600;4.694;2022-07-18T09:19:38;102238.00;;;30.91;43.87
62725;BME280;49026;52.600;4.694;2022-07-18T09:22:24;102231.50;;;30.84;42.93
62725;BME280;49026;52.600;4.694;2022-07-18T09:24:58;102226.03;;;30.76;43.48
62725;BME280;49026;52.600;4.694;2022-07-18T09:30:30;102231.22;;;31.30;42.72
62725;BME280;49026;52.600;4.694;2022-07-18T09:35:30;102232.69;;;31.75;43.15
62725;BME280;49026;52.600;4.694;2022-07-18T09:40:36;102239.50;;;32.04;41.97
62725;BME280;49026;52.600;4.694;2022-07-18T09:43:04;102232.91;;;32.23;42.51
62725;BME280;49026;52.600;4.694;2022-07-18T09:45:33;102233.56;;;32.41;41.92
62725;BME280;49026;52.600;4.694;2022-07-18T09:53:26;102223.34;;;32.02;40.46
62725;BME280;49026;52.600;4.694;2022-07-18T09:55:55;102222.38;;;32.11;40.63
62725;BME280;49026;52.600;4.694;2022-07-18T09:58:25;102221.50;;;32.11;40.64
62725;BME280;49026;52.600;4.694;2022-07-18T10:00:53;102215.88;;;32.29;41.96
62725;BME280;49026;52.600;4.694;2022-07-18T10:03:19;102219.22;;;32.64;41.83
62725;BME280;49026;52.600;4.694;2022-07-18T10:05:46;102216.31;;;32.74;40.85
62725;BME280;49026;52.600;4.694;2022-07-18T10:08:14;102219.66;;;32.92;40.25
62725;BME280;49026;52.600;4.694;2022-07-18T10:10:46;102214.97;;;33.17;41.26
62725;BME280;49026;52.600;4.694;2022-07-18T10:13:15;102216.94;;;33.32;39.69
62725;BME280;49026;52.600;4.694;2022-07-18T10:15:41;102213.16;;;33.33;42.57
62725;BME280;49026;52.600;4.694;2022-07-18T10:18:13;102219.75;;;33.15;39.90
62725;BME280;49026;52.600;4.694;2022-07-18T10:26:16;102206.63;;;33.19;39.28
62725;BME280;49026;52.600;4.694;2022-07-18T10:35:06;102212.63;;;33.37;39.13
62725;BME280;49026;52.600;4.694;2022-07-18T10:37:33;102211.38;;;33.48;38.45
62725;BME280;49026;52.600;4.694;2022-07-18T10:40:23;102220.72;;;33.14;36.75
62725;BME280;49026;52.600;4.694;2022-07-18T10:45:55;102210.19;;;33.11;38.13
62725;BME280;49026;52.600;4.694;2022-07-18T10:59:34;102219.25;;;33.43;36.93
62725;BME280;49026;52.600;4.694;2022-07-18T11:02:04;102216.66;;;33.73;37.03
62725;BME280;49026;52.600;4.694;2022-07-18T11:04:36;102220.31;;;33.88;36.84
62725;BME280;49026;52.600;4.694;2022-07-18T11:07:13;102216.19;;;33.69;35.20
62725;BME280;49026;52.600;4.694;2022-07-18T11:09:48;102207.16;;;33.69;36.25
62725;BME280;49026;52.600;4.694;2022-07-18T11:12:21;102217.53;;;33.73;35.76
62725;BME280;49026;52.600;4.694;2022-07-18T11:15:07;102210.16;;;33.51;34.13
62725;BME280;49026;52.600;4.694;2022-07-18T11:18:02;102213.47;;;33.07;34.77
62725;BME280;49026;52.600;4.694;2022-07-18T11:20:42;102200.13;;;32.80;33.95
62725;BME280;49026;52.600;4.694;2022-07-18T11:23:23;102201.16;;;32.79;34.81
62725;BME280;49026;52.600;4.694;2022-07-18T11:25:57;102203.44;;;32.99;33.73
62725;BME280;49026;52.600;4.694;2022-07-18T11:28:26;102197.97;;;33.15;34.06
62725;BME280;49026;52.600;4.694;2022-07-18T11:31:03;102190.31;;;33.42;34.15
62725;BME280;49026;52.600;4.694;2022-07-18T11:33:33;102197.75;;;33.48;33.51
62725;BME280;49026;52.600;4.694;2022-07-18T11:36:11;102176.13;;;33.23;33.67
62725;BME280;49026;52.600;4.694;2022-07-18T11:38:46;102183.81;;;33.20;33.08
62725;BME280;49026;52.600;4.694;2022-07-18T11:41:12;102177.72;;;33.10;33.62
62725;BME280;49026;52.600;4.694;2022-07-18T11:43:37;102173.22;;;32.85;33.90
62725;BME280;49026;52.600;4.694;2022-07-18T11:46:09;102176.13;;;32.84;33.83
62725;BME280;49026;52.600;4.694;2022-07-18T11:48:38;102175.34;;;33.07;33.68
62725;BME280;49026;52.600;4.694;2022-07-18T11:51:18;102171.06;;;33.44;33.61
62725;BME280;49026;52.600;4.694;2022-07-18T11:53:44;102170.13;;;33.51;33.83
62725;BME280;49026;52.600;4.694;2022-07-18T11:56:10;102175.63;;;33.66;32.96
62725;BME280;49026;52.600;4.694;2022-07-18T11:58:37;102173.75;;;33.75;33.22
62725;BME280;49026;52.600;4.694;2022-07-18T12:01:04;102168.53;;;34.18;32.87
62725;BME280;49026;52.600;4.694;2022-07-18T12:03:33;102170.19;;;34.27;32.28
62725;BME280;49026;52.600;4.694;2022-07-18T12:05:59;102158.88;;;34.15;32.42
62725;BME280;49026;52.600;4.694;2022-07-18T12:08:36;102159.09;;;34.44;32.71
62725;BME280;49026;52.600;4.694;2022-07-18T12:13:52;102167.75;;;34.77;32.16
62725;BME280;49026;52.600;4.694;2022-07-18T12:16:42;102160.13;;;35.24;32.77
62725;BME280;49026;52.600;4.694;2022-07-18T12:22:11;102157.53;;;35.37;31.57
62725;BME280;49026;52.600;4.694;2022-07-18T12:24:55;102159.06;;;35.68;31.64
62725;BME280;49026;52.600;4.694;2022-07-18T12:35:29;102156.25;;;34.97;31.08
62725;BME280;49026;52.600;4.694;2022-07-18T12:40:50;102151.19;;;34.79;30.42
62725;BME280;49026;52.600;4.694;2022-07-18T12:43:35;102148.09;;;34.82;30.76
62725;BME280;49026;52.600;4.694;2022-07-18T12:46:07;102154.84;;;34.56;30.66
62725;BME280;49026;52.600;4.694;2022-07-18T12:48:33;102153.53;;;34.22;30.28
62725;BME280;49026;52.600;4.694;2022-07-18T12:51:00;102150.47;;;34.02;30.43
62725;BME280;49026;52.600;4.694;2022-07-18T12:53:29;102148.22;;;34.06;30.64
62725;BME280;49026;52.600;4.694;2022-07-18T12:55:57;102147.13;;;34.15;30.04
62725;BME280;49026;52.600;4.694;2022-07-18T12:58:23;102155.38;;;34.07;29.80
62725;BME280;49026;52.600;4.694;2022-07-18T13:00:49;102146.59;;;33.82;29.39
62725;BME280;49026;52.600;4.694;2022-07-18T13:03:15;102142.88;;;33.51;29.50
62725;BME280;49026;52.600;4.694;2022-07-18T13:05:41;102143.44;;;33.23;29.48
62725;BME280;49026;52.600;4.694;2022-07-18T13:08:06;102138.66;;;33.26;30.05
62725;BME280;49026;52.600;4.694;2022-07-18T13:10:33;102139.06;;;33.37;29.61
62725;BME280;49026;52.600;4.694;2022-07-18T13:13:05;102127.69;;;33.34;29.37
62725;BME280;49026;52.600;4.694;2022-07-18T13:15:33;102133.56;;;33.22;29.60
62725;BME280;49026;52.600;4.694;2022-07-18T13:17:59;102129.03;;;33.38;29.28
62725;BME280;49026;52.600;4.694;2022-07-18T13:20:24;102126.16;;;33.54;29.78
62725;BME280;49026;52.600;4.694;2022-07-18T13:22:55;102124.50;;;33.53;28.54
62725;BME280;49026;52.600;4.694;2022-07-18T13:25:21;102120.59;;;33.24;29.34
62725;BME280;49026;52.600;4.694;2022-07-18T13:27:47;102128.00;;;33.08;28.97
62725;BME280;49026;52.600;4.694;2022-07-18T13:30:13;102124.91;;;32.87;29.18
62725;BME280;49026;52.600;4.694;2022-07-18T13:32:41;102119.16;;;32.82;28.78
62725;BME280;49026;52.600;4.694;2022-07-18T13:35:10;102121.06;;;32.74;28.81
62725;BME280;49026;52.600;4.694;2022-07-18T13:37:36;102113.81;;;32.89;29.23
62725;BME280;49026;52.600;4.694;2022-07-18T13:40:02;102119.06;;;32.99;29.43
62725;BME280;49026;52.600;4.694;2022-07-18T13:42:30;102112.44;;;33.24;28.58
62725;BME280;49026;52.600;4.694;2022-07-18T13:44:55;102115.84;;;33.27;28.83
62725;BME280;49026;52.600;4.694;2022-07-18T13:47:21;102107.97;;;33.32;28.37
62725;BME280;49026;52.600;4.694;2022-07-18T13:49:47;102107.97;;;33.32;28.73